Clericy, Canada
Current Conditions -  °F | °C
As of 5:00 PM on Monday 20 Oct 2014 (Local Time) from CYUY Reporting Station
Light Rain Light Rain  
Wind Chill: 35°   Ceiling: 1400
Heat Index: 39°   Visibility: 15mi
Dew Point: 36°   Wind: 6mph
Humidity: 87%   Direction: 90°E
Pressure: 29.86"   Gusts: NA
Location:  48.37°N, 78.87°W
Report Text: CYUY 202100Z 09005KT 040V100 15SM -RA OVC014 04/02 A2986 RMK SC8 SLP125
Loading
Personal Weather Stations






























Interactive Weather Map
Tropical Storm Tracking
New forecast layout! Learn more

10-Day Weather Forecast

Advertisements
Track Severe Weather on mobile